MDT,Max TemperatureF,Mean TemperatureF,Min TemperatureF,Max Dew PointF,MeanDew PointF,Min DewpointF,Max Humidity, Mean Humidity, Min Humidity, Max Sea Level PressureIn, Mean Sea Level PressureIn, Min Sea Level PressureIn, Max VisibilityMiles, Mean VisibilityMiles, Min VisibilityMiles, Max Wind SpeedMPH, Mean Wind SpeedMPH, Max Gust SpeedMPH,PrecipitationIn, CloudCover, Events, WindDirDegrees
2012-4-1,92,67,42,40,32,23,62,36,9,29.43,29.32,29.24,10,10,10,41,13,53,0.00,0,,262
2012-4-2,56,49,42,39,31,22,89,60,30,30.18,29.85,29.41,10,10,10,41,25,55,T,6,,344
2012-4-3,61,46,30,31,23,18,92,56,19,30.28,30.19,30.08,10,10,10,21,7,28,0.00,2,,54
2012-4-4,66,47,27,32,24,20,81,50,19,30.09,29.95,29.83,10,10,10,17,7,22,0.00,0,,138
2012-4-5,76,58,40,45,41,31,89,61,33,29.85,29.82,29.77,10,10,10,29,13,36,0.00,0,,132
2012-4-6,68,54,40,51,44,36,86,67,48,29.96,29.78,29.58,10,10,10,33,17,46,T,5,Rain,148
2012-4-7,57,42,27,31,22,15,75,47,19,30.31,30.22,29.99,10,10,10,31,14,41,0.00,0,,288
2012-4-8,64,45,25,24,17,13,75,45,15,30.34,30.28,30.22,10,10,10,24,10,31,0.00,0,,299
2012-4-9,59,42,24,21,17,12,63,41,19,30.36,30.29,30.24,10,10,10,17,7,26,0.00,0,,319
2012-4-10,56,38,19,17,14,12,73,48,22,30.34,30.29,30.24,10,10,10,20,10,26,0.00,3,,84
2012-4-11,64,44,24,34,23,13,68,47,25,30.32,30.15,29.88,10,10,10,26,16,38,0.00,5,,127
2012-4-12,73,60,46,52,45,29,93,66,38,29.88,29.68,29.56,10,10,6,23,12,33,0.06,5,Rain,155
2012-4-13,71,56,41,46,37,23,100,59,17,29.74,29.63,29.55,10,9,0,29,14,36,0.00,2,Fog,303
2012-4-14,60,48,35,48,40,30,86,62,37,29.74,29.62,29.50,10,10,6,26,11,33,0.12,7,Rain,25
2012-4-15,49,44,39,47,44,33,100,90,79,29.95,29.61,29.46,10,8,2,33,21,44,0.77,7,Rain,360
2012-4-16,55,44,32,32,30,27,82,60,38,30.14,30.09,29.97,10,10,10,22,10,28,0.00,5,,273
2012-4-17,76,53,30,50,37,28,92,58,23,30.11,29.98,29.79,10,10,10,46,9,55,0.03,2,Rain,222
2012-4-18,63,50,36,45,41,34,92,68,43,30.08,29.94,29.83,10,10,10,24,12,31,T,3,Rain,92
2012-4-19,54,49,43,46,43,41,100,83,66,30.07,29.95,29.85,10,7,2,18,8,23,0.13,7,Rain,54
2012-4-20,65,50,34,43,37,30,100,65,30,30.13,30.02,29.79,10,9,1,14,5,17,T,3,,274
2012-4-21,69,51,33,44,34,25,77,51,24,30.26,30.02,29.85,10,10,10,32,16,40,0.00,1,,335
2012-4-22,68,49,30,35,29,25,92,57,22,30.34,30.26,30.17,10,10,10,13,6,22,0.00,0,,234
2012-4-23,87,65,42,42,36,30,64,39,14,30.16,29.92,29.71,10,10,10,13,5,18,0.00,0,,161
2012-4-24,90,70,50,46,41,38,68,42,16,29.69,29.59,29.47,10,10,9,38,8,52,0.00,0,,265
2012-4-25,87,71,54,49,45,34,67,42,16,29.89,29.70,29.53,10,10,9,28,13,39,0.02,1,Rain,331
2012-4-26,62,53,44,47,43,41,92,72,51,30.03,29.91,29.75,10,10,9,30,18,41,0.01,2,Rain,97
2012-4-27,55,49,42,52,46,39,100,81,61,29.75,29.65,29.55,10,8,1,30,18,38,0.63,7,Rain,115
2012-4-28,57,50,42,48,40,37,93,74,54,29.98,29.83,29.73,10,9,2,30,11,38,0.12,5,Rain,278
2012-4-29,65,52,38,45,38,35,86,63,40,30.03,29.97,29.91,10,10,10,20,8,23,T,5,Rain,249
2012-4-30,76,55,34,46,39,33,92,58,23,29.96,29.76,29.49,10,10,10,18,6,23,0.00,0,,210